createdAt,value
2022-09-27T00:00:44.633Z,98672.22
2022-09-27T00:03:11.522Z,98666.03
2022-09-27T00:05:39.270Z,98665.50
2022-09-27T00:08:06.192Z,98666.59
2022-09-27T00:10:32.834Z,98662.81
2022-09-27T00:12:59.673Z,98662.00
2022-09-27T00:15:26.340Z,98669.88
2022-09-27T00:17:53.180Z,98672.38
2022-09-27T00:20:20.913Z,98681.50
2022-09-27T00:22:48.988Z,98678.97
2022-09-27T00:25:16.675Z,98672.97
2022-09-27T00:27:43.385Z,98666.81
2022-09-27T00:30:11.098Z,98666.59
2022-09-27T00:32:38.120Z,98664.91
2022-09-27T00:35:05.063Z,98659.66
2022-09-27T00:37:31.884Z,98656.22
2022-09-27T00:39:58.797Z,98654.34
2022-09-27T00:42:25.613Z,98652.16
2022-09-27T00:45:14.344Z,98658.84
2022-09-27T00:47:49.671Z,98654.75
2022-09-27T00:50:51.313Z,98659.19
2022-09-27T00:53:23.756Z,98649.97
2022-09-27T00:55:57.347Z,98657.06
2022-09-27T00:58:30.183Z,98646.16
2022-09-27T01:01:02.414Z,98645.88
2022-09-27T01:03:51.413Z,98642.03
2022-09-27T01:06:20.604Z,98649.47
2022-09-27T01:08:48.057Z,98639.22
2022-09-27T01:11:26.843Z,98638.66
2022-09-27T01:14:27.522Z,98641.41
2022-09-27T01:17:03.625Z,98637.63
2022-09-27T01:20:12.405Z,98636.94
2022-09-27T01:22:46.564Z,98643.72
2022-09-27T01:25:38.191Z,98639.72
2022-09-27T01:28:10.875Z,98648.56
2022-09-27T01:30:48.348Z,98645.53
2022-09-27T01:33:23.458Z,98657.38
2022-09-27T01:36:07.194Z,98652.66
2022-09-27T01:39:09.680Z,98651.78
2022-09-27T01:42:21.270Z,98648.72
2022-09-27T01:45:16.788Z,98654.47
2022-09-27T01:48:01.824Z,98650.31
2022-09-27T01:50:50.419Z,98650.31
2022-09-27T01:53:23.075Z,98654.06
2022-09-27T01:56:18.389Z,98654.16
2022-09-27T01:59:00.825Z,98651.69
2022-09-27T02:01:32.388Z,98652.22
2022-09-27T02:04:02.171Z,98652.97
2022-09-27T02:06:53.390Z,98648.94
2022-09-27T02:09:35.674Z,98650.13
2022-09-27T02:12:24.119Z,98650.78
2022-09-27T02:15:02.017Z,98642.88
2022-09-27T02:17:44.589Z,98656.06
2022-09-27T02:20:26.237Z,98654.97
2022-09-27T02:23:05.836Z,98661.06
2022-09-27T02:25:58.408Z,98649.94
2022-09-27T02:28:35.251Z,98660.47
2022-09-27T02:31:02.890Z,98658.09
2022-09-27T02:34:21.617Z,98665.94
2022-09-27T02:36:48.508Z,98664.38
2022-09-27T02:39:16.375Z,98662.44
2022-09-27T02:41:43.442Z,98670.72
2022-09-27T02:44:13.449Z,98669.34
2022-09-27T02:46:49.966Z,98679.09
2022-09-27T02:49:42.282Z,98669.44
2022-09-27T02:52:42.796Z,98678.91
2022-09-27T02:55:32.138Z,98681.06
2022-09-27T02:58:17.189Z,98683.38
2022-09-27T03:01:21.801Z,98683.97
2022-09-27T03:04:06.683Z,98683.66
2022-09-27T03:06:34.482Z,98692.25
2022-09-27T03:09:01.208Z,98691.97
2022-09-27T03:11:27.923Z,98695.94
2022-09-27T03:14:08.293Z,98697.34
2022-09-27T03:16:39.071Z,98689.34
2022-09-27T03:19:28.708Z,98703.75
2022-09-27T03:22:24.432Z,98707.66
2022-09-27T03:24:51.248Z,98717.84
2022-09-27T03:27:17.816Z,98716.00
2022-09-27T03:29:44.659Z,98718.16
2022-09-27T03:32:11.667Z,98722.91
2022-09-27T03:35:14.021Z,98718.13
2022-09-27T03:37:41.426Z,98716.56
2022-09-27T03:40:09.227Z,98724.13
2022-09-27T03:42:38.521Z,98722.06
2022-09-27T03:45:06.406Z,98728.81
2022-09-27T03:47:32.996Z,98736.16
2022-09-27T03:50:00.167Z,98736.16
2022-09-27T03:52:26.877Z,98739.34
2022-09-27T03:54:56.312Z,98742.53
2022-09-27T03:57:25.592Z,98743.81
2022-09-27T03:59:52.742Z,98739.06
2022-09-27T04:02:42.406Z,98748.03
2022-09-27T04:05:21.218Z,98751.19
2022-09-27T04:07:48.399Z,98755.00
2022-09-27T04:10:17.168Z,98758.16
2022-09-27T04:12:44.471Z,98756.09
2022-09-27T04:15:12.174Z,98754.38
2022-09-27T04:17:51.468Z,98757.00
2022-09-27T04:20:34.241Z,98761.88
2022-09-27T04:23:05.204Z,98761.88
2022-09-27T04:25:34.999Z,98762.69
2022-09-27T04:28:08.921Z,98770.81
2022-09-27T04:30:35.830Z,98764.06
2022-09-27T04:33:11.433Z,98775.84
2022-09-27T04:36:18.934Z,98777.50
2022-09-27T04:39:11.971Z,98779.16
2022-09-27T04:41:45.687Z,98780.13
2022-09-27T04:44:13.249Z,98779.06
2022-09-27T04:46:45.664Z,98783.31
2022-09-27T04:49:12.918Z,98788.06
2022-09-27T04:51:39.717Z,98788.88
2022-09-27T04:54:06.451Z,98785.63
2022-09-27T04:56:36.884Z,98796.72
2022-09-27T04:59:09.819Z,98784.56
2022-09-27T05:01:38.379Z,98791.84
2022-09-27T05:04:30.362Z,98793.69
2022-09-27T05:06:57.449Z,98789.00
2022-09-27T05:09:40.208Z,98796.56
2022-09-27T05:12:08.675Z,98801.63
2022-09-27T05:14:56.579Z,98795.47
2022-09-27T05:17:41.558Z,98806.66
2022-09-27T05:20:26.979Z,98809.88
2022-09-27T05:22:58.677Z,98820.25
2022-09-27T05:25:25.733Z,98828.28
2022-09-27T05:27:52.829Z,98832.72
2022-09-27T05:30:20.085Z,98837.56
2022-09-27T05:32:50.548Z,98831.72
2022-09-27T05:35:38.620Z,98844.28
2022-09-27T05:38:07.755Z,98844.38
2022-09-27T05:40:41.439Z,98841.69
2022-09-27T05:43:10.093Z,98851.34
2022-09-27T05:45:36.941Z,98852.03
2022-09-27T05:48:05.352Z,98849.91
2022-09-27T05:50:36.609Z,98854.75
2022-09-27T05:53:04.075Z,98853.38
2022-09-27T05:55:30.890Z,98861.44
2022-09-27T05:58:00.029Z,98866.28
2022-09-27T06:00:38.841Z,98868.28
2022-09-27T06:03:20.476Z,98868.69
2022-09-27T06:06:06.459Z,98869.00
2022-09-27T06:08:44.028Z,98870.06
2022-09-27T06:11:13.391Z,98873.06
2022-09-27T06:13:40.583Z,98873.00
2022-09-27T06:16:11.689Z,98870.84
2022-09-27T06:18:42.316Z,98874.53
2022-09-27T06:21:09.735Z,98882.66
2022-09-27T06:23:37.247Z,98879.09
2022-09-27T06:26:12.410Z,98891.19
2022-09-27T06:29:03.308Z,98892.25
2022-09-27T06:31:32.198Z,98905.44
2022-09-27T06:34:09.060Z,98891.78
2022-09-27T06:36:35.815Z,98897.69
2022-09-27T06:39:02.687Z,98908.41
2022-09-27T06:41:40.029Z,98897.25
2022-09-27T06:44:16.053Z,98902.38
2022-09-27T06:47:01.545Z,98903.03
2022-09-27T06:49:49.421Z,98918.06
2022-09-27T06:52:18.064Z,98913.69
2022-09-27T06:54:45.236Z,98912.63
2022-09-27T06:57:32.038Z,98922.22
2022-09-27T07:00:17.294Z,98917.06
2022-09-27T07:03:11.431Z,98923.06
2022-09-27T07:06:06.319Z,98924.97
2022-09-27T07:08:45.039Z,98927.91
2022-09-27T07:11:11.731Z,98936.75
2022-09-27T07:13:42.723Z,98934.94
2022-09-27T07:16:13.967Z,98946.19
2022-09-27T07:18:44.614Z,98952.38
2022-09-27T07:21:12.460Z,98962.31
2022-09-27T07:23:39.695Z,98960.91
2022-09-27T07:26:10.449Z,98968.97
2022-09-27T07:28:37.564Z,98978.41
2022-09-27T07:31:04.529Z,98967.94
2022-09-27T07:33:32.241Z,98973.25
2022-09-27T07:36:07.101Z,98984.31
2022-09-27T07:38:34.314Z,98988.94
2022-09-27T07:41:06.748Z,98991.63
2022-09-27T07:43:33.543Z,98989.41
2022-09-27T07:46:00.533Z,98998.88
2022-09-27T07:48:38.038Z,98989.50
2022-09-27T07:51:16.323Z,98993.00
2022-09-27T07:53:52.572Z,99004.00
2022-09-27T07:56:45.974Z,98994.78
2022-09-27T07:59:14.532Z,99002.66
2022-09-27T08:01:41.387Z,98995.41
2022-09-27T08:04:08.108Z,99012.38
2022-09-27T08:06:35.144Z,99008.34
2022-09-27T08:09:03.119Z,99013.31
2022-09-27T08:11:32.135Z,99011.19
2022-09-27T08:13:58.877Z,99011.19
2022-09-27T08:16:30.711Z,99009.53
2022-09-27T08:19:17.108Z,99010.34
2022-09-27T08:21:59.016Z,99009.13
2022-09-27T08:24:29.715Z,99005.53
2022-09-27T08:27:11.949Z,98995.34
2022-09-27T08:29:47.792Z,99000.94
2022-09-27T08:32:20.806Z,99009.78
2022-09-27T08:34:50.201Z,99008.03
2022-09-27T08:37:17.092Z,99006.44
2022-09-27T08:39:47.731Z,99005.59
2022-09-27T08:42:56.824Z,99011.13
2022-09-27T08:45:38.967Z,99010.63
2022-09-27T08:48:10.379Z,99015.50
2022-09-27T08:50:44.389Z,99015.44
2022-09-27T08:53:22.425Z,99022.94
2022-09-27T08:55:52.638Z,99026.69
2022-09-27T08:58:27.112Z,99018.13
2022-09-27T09:00:59.730Z,99017.44
2022-09-27T09:03:38.622Z,99020.13
2022-09-27T09:06:21.261Z,99028.75
2022-09-27T09:09:06.289Z,99025.19
2022-09-27T09:12:32.646Z,99031.56
2022-09-27T09:15:11.856Z,99028.59
2022-09-27T09:18:17.821Z,99023.53
2022-09-27T09:21:01.279Z,99040.53
2022-09-27T09:23:37.780Z,99030.50
2022-09-27T09:26:24.083Z,99034.78
2022-09-27T09:29:27.392Z,99027.91
2022-09-27T09:32:32.871Z,99028.94
2022-09-27T09:35:06.241Z,99034.28
2022-09-27T09:37:41.025Z,99027.88
2022-09-27T09:40:23.678Z,99027.56
2022-09-27T09:43:14.103Z,99032.47
2022-09-27T09:45:45.927Z,99027.06
2022-09-27T09:48:39.270Z,99033.88
2022-09-27T09:51:10.977Z,99027.56
2022-09-27T09:53:49.185Z,99023.34
2022-09-27T09:56:24.570Z,99023.22
2022-09-27T09:58:57.280Z,99028.78
2022-09-27T10:01:36.001Z,99029.34
2022-09-27T10:04:04.069Z,99032.84
2022-09-27T10:06:31.668Z,99029.81
2022-09-27T10:09:00.348Z,99027.44
2022-09-27T10:11:50.126Z,99032.31
2022-09-27T10:14:27.368Z,99029.91
2022-09-27T10:17:01.744Z,99031.59
2022-09-27T10:19:31.697Z,99029.47
2022-09-27T10:22:14.337Z,99022.97
2022-09-27T10:24:56.546Z,99021.53
2022-09-27T10:27:49.493Z,99018.41
2022-09-27T10:30:31.516Z,99011.72
2022-09-27T10:33:07.537Z,99024.09
2022-09-27T10:35:46.958Z,99018.56
2022-09-27T10:38:31.120Z,99016.94
2022-09-27T10:41:41.447Z,99007.22
2022-09-27T10:44:32.803Z,99009.22
2022-09-27T10:47:09.069Z,99010.66
2022-09-27T10:49:46.501Z,99011.41
2022-09-27T10:52:25.724Z,99007.06
2022-09-27T10:55:05.729Z,99003.63
2022-09-27T10:57:32.990Z,99005.91
2022-09-27T11:00:08.323Z,99012.56
2022-09-27T11:02:37.734Z,99010.75
2022-09-27T11:05:29.601Z,99005.22
2022-09-27T11:08:03.146Z,99003.28
2022-09-27T11:10:40.313Z,99000.19
2022-09-27T11:13:16.198Z,98987.06
2022-09-27T11:16:23.130Z,98984.16
2022-09-27T11:19:25.252Z,98988.13
2022-09-27T11:22:02.476Z,98984.53
2022-09-27T11:25:05.416Z,98985.47
2022-09-27T11:27:45.684Z,98974.44
2022-09-27T11:30:21.861Z,98980.25
2022-09-27T11:33:27.366Z,98972.59
2022-09-27T11:36:29.447Z,98969.47
2022-09-27T11:39:12.738Z,98975.88
2022-09-27T11:42:14.848Z,98978.41
2022-09-27T11:45:37.257Z,98980.00
2022-09-27T11:48:15.328Z,98991.69
2022-09-27T11:50:56.706Z,98983.38
2022-09-27T11:53:38.893Z,98986.91
2022-09-27T11:56:41.336Z,98985.09
2022-09-27T11:59:20.212Z,98980.06
2022-09-27T12:01:57.222Z,98973.47
2022-09-27T12:04:27.047Z,98977.59
2022-09-27T12:07:12.718Z,98968.38
2022-09-27T12:09:48.196Z,98959.19
2022-09-27T12:12:21.691Z,98952.59
2022-09-27T12:14:59.841Z,98950.94
2022-09-27T12:17:36.066Z,98942.22
2022-09-27T12:20:14.218Z,98952.88
2022-09-27T12:23:01.036Z,98945.31
2022-09-27T12:25:42.922Z,98940.50
2022-09-27T12:28:33.892Z,98933.13
2022-09-27T12:31:28.947Z,98932.09
2022-09-27T12:34:30.159Z,98927.50
2022-09-27T12:37:16.994Z,98927.91
2022-09-27T12:40:21.544Z,98933.00
2022-09-27T12:43:00.579Z,98932.94
2022-09-27T12:46:27.333Z,98930.63
2022-09-27T12:49:22.457Z,98930.75
2022-09-27T12:51:57.621Z,98923.00
2022-09-27T12:54:54.253Z,98932.50
2022-09-27T12:57:33.040Z,98931.88
2022-09-27T13:00:30.413Z,98922.25
2022-09-27T13:03:26.304Z,98919.50
2022-09-27T13:06:34.279Z,98920.56
2022-09-27T13:09:19.915Z,98915.88
2022-09-27T13:11:54.534Z,98921.19
2022-09-27T13:14:26.358Z,98914.69
2022-09-27T13:16:53.694Z,98914.59
2022-09-27T13:19:37.708Z,98907.91
2022-09-27T13:22:28.236Z,98905.81
2022-09-27T13:25:55.538Z,98900.81
2022-09-27T13:28:33.503Z,98908.50
2022-09-27T13:31:10.930Z,98895.63
2022-09-27T13:33:45.315Z,98899.44
2022-09-27T13:36:28.257Z,98892.91
2022-09-27T13:39:04.933Z,98902.47
2022-09-27T13:42:04.678Z,98910.47
2022-09-27T13:44:49.894Z,98901.50
2022-09-27T13:47:38.126Z,98904.00
2022-09-27T13:50:29.262Z,98904.19
2022-09-27T13:53:23.542Z,98901.41
2022-09-27T13:55:53.836Z,98913.03
2022-09-27T13:58:35.559Z,98905.88
2022-09-27T14:01:25.935Z,98913.88
2022-09-27T14:03:56.580Z,98910.72
2022-09-27T14:06:32.118Z,98929.56
2022-09-27T14:09:04.876Z,98931.38
2022-09-27T14:11:39.356Z,98925.88
2022-09-27T14:14:14.062Z,98926.47
2022-09-27T14:16:47.706Z,98923.56
2022-09-27T14:19:18.691Z,98918.53
2022-09-27T14:21:47.007Z,98916.66
2022-09-27T14:24:31.845Z,98917.16
2022-09-27T14:27:08.737Z,98915.41
2022-09-27T14:30:02.762Z,98908.06
2022-09-27T14:32:35.116Z,98904.66
2022-09-27T14:35:32.372Z,98903.69
2022-09-27T14:38:15.673Z,98912.78
2022-09-27T14:41:01.999Z,98915.09
2022-09-27T14:43:30.151Z,98908.38
2022-09-27T14:46:01.973Z,98902.91
2022-09-27T14:48:37.061Z,98903.91
2022-09-27T14:51:14.587Z,98914.41
2022-09-27T14:53:45.365Z,98916.38
2022-09-27T14:56:19.239Z,98927.88
2022-09-27T14:58:48.159Z,98924.31
2022-09-27T15:01:23.680Z,98924.88
2022-09-27T15:03:50.808Z,98931.03
2022-09-27T15:06:18.347Z,98924.53
2022-09-27T15:08:49.283Z,98925.63
2022-09-27T15:11:19.102Z,98930.84
2022-09-27T15:13:50.564Z,98932.84
2022-09-27T15:16:20.715Z,98922.94
2022-09-27T15:18:50.511Z,98930.72
2022-09-27T15:21:29.271Z,98923.22
2022-09-27T15:23:56.709Z,98928.59
2022-09-27T15:26:27.178Z,98934.06
2022-09-27T15:28:54.029Z,98936.84
2022-09-27T15:32:00.833Z,98938.94
2022-09-27T15:34:29.920Z,98954.69
2022-09-27T15:37:03.440Z,98956.22
2022-09-27T15:39:35.781Z,98952.28
2022-09-27T15:42:10.015Z,98951.22
2022-09-27T15:44:38.130Z,98949.41
2022-09-27T15:47:05.175Z,98949.41
2022-09-27T15:49:35.885Z,98945.31
2022-09-27T15:52:05.139Z,98953.84
2022-09-27T15:54:34.666Z,98956.50
2022-09-27T15:57:05.450Z,98954.88
2022-09-27T15:59:35.125Z,98957.81
2022-09-27T16:02:17.309Z,98963.19
2022-09-27T16:04:44.895Z,98956.50
2022-09-27T16:07:14.896Z,98958.91
2022-09-27T16:09:41.510Z,98960.59
2022-09-27T16:12:09.012Z,98970.88
2022-09-27T16:14:35.594Z,98974.47
2022-09-27T16:17:02.263Z,98975.75
2022-09-27T16:19:29.033Z,98971.78
2022-09-27T16:21:55.655Z,98969.78
2022-09-27T16:24:23.744Z,98966.94
2022-09-27T16:26:50.763Z,98963.28
2022-09-27T16:29:17.474Z,98973.25
2022-09-27T16:31:44.310Z,98977.59
2022-09-27T16:34:11.781Z,98977.38
2022-09-27T16:36:39.663Z,98987.00
2022-09-27T16:39:08.016Z,98989.44
2022-09-27T16:41:34.805Z,98984.88
2022-09-27T16:44:13.367Z,98990.41
2022-09-27T16:46:41.774Z,98984.75
2022-09-27T16:49:31.912Z,98988.56
2022-09-27T16:52:01.935Z,98977.81
2022-09-27T16:54:29.672Z,98986.00
2022-09-27T16:56:58.024Z,98985.00
2022-09-27T16:59:25.242Z,98996.19
2022-09-27T17:01:52.525Z,98991.81
2022-09-27T17:04:19.250Z,99002.56
2022-09-27T17:06:46.133Z,99003.25
2022-09-27T17:09:12.782Z,99003.13
2022-09-27T17:11:39.430Z,99009.59
2022-09-27T17:14:06.147Z,99007.66
2022-09-27T17:16:33.282Z,99013.63
2022-09-27T17:19:00.122Z,99015.94
2022-09-27T17:21:26.818Z,99017.03
2022-09-27T17:23:53.524Z,99016.06
2022-09-27T17:26:22.281Z,99016.63
2022-09-27T17:28:49.908Z,99018.06
2022-09-27T17:31:18.769Z,99012.38
2022-09-27T17:33:55.497Z,99021.44
2022-09-27T17:36:28.061Z,99024.59
2022-09-27T17:38:54.882Z,99021.63
2022-09-27T17:41:24.395Z,99025.69
2022-09-27T17:43:59.585Z,99018.75
2022-09-27T17:46:34.570Z,99010.44
2022-09-27T17:49:21.257Z,99013.19
2022-09-27T17:51:50.203Z,99017.38
2022-09-27T17:54:19.571Z,99020.31
2022-09-27T17:56:47.074Z,99020.13
2022-09-27T17:59:17.431Z,99021.72
2022-09-27T18:01:47.712Z,99021.50
2022-09-27T18:04:16.917Z,99012.63
2022-09-27T18:06:46.159Z,99019.03
2022-09-27T18:09:15.268Z,99017.72
2022-09-27T18:11:42.688Z,99012.91
2022-09-27T18:14:10.647Z,99017.25
2022-09-27T18:16:42.859Z,99011.88
2022-09-27T18:19:14.695Z,99010.09
2022-09-27T18:21:41.437Z,99010.38
2022-09-27T18:24:09.632Z,99021.44
2022-09-27T18:26:38.341Z,99019.25
2022-09-27T18:29:09.577Z,99020.66
2022-09-27T18:31:36.473Z,99024.19
2022-09-27T18:34:03.877Z,99035.28
2022-09-27T18:36:30.662Z,99043.84
2022-09-27T18:38:59.724Z,99039.50
2022-09-27T18:41:29.125Z,99029.81
2022-09-27T18:43:59.239Z,99035.22
2022-09-27T18:46:36.191Z,99030.91
2022-09-27T18:49:10.353Z,99040.34
2022-09-27T18:51:39.865Z,99046.81
2022-09-27T18:54:11.409Z,99048.69
2022-09-27T18:56:41.220Z,99040.41
2022-09-27T18:59:09.503Z,99052.47
2022-09-27T19:01:39.623Z,99045.47
2022-09-27T19:04:09.011Z,99066.16
2022-09-27T19:06:37.107Z,99060.78
2022-09-27T19:09:04.720Z,99057.53
2022-09-27T19:11:31.883Z,99050.25
2022-09-27T19:13:59.667Z,99056.44
2022-09-27T19:16:27.830Z,99054.53
2022-09-27T19:18:54.974Z,99044.31
2022-09-27T19:21:24.791Z,99051.06
2022-09-27T19:23:51.944Z,99052.13
2022-09-27T19:26:21.429Z,99047.31
2022-09-27T19:28:48.779Z,99038.97
2022-09-27T19:31:18.648Z,99034.69
2022-09-27T19:33:45.540Z,99033.88
2022-09-27T19:36:16.567Z,99035.50
2022-09-27T19:38:43.559Z,99027.16
2022-09-27T19:41:12.901Z,99036.31
2022-09-27T19:43:39.839Z,99022.91
2022-09-27T19:46:13.037Z,99036.56
2022-09-27T19:48:39.787Z,99037.38
2022-09-27T19:51:07.410Z,99031.75
2022-09-27T19:53:34.759Z,99031.44
2022-09-27T19:56:07.011Z,99030.13
2022-09-27T19:58:35.623Z,99026.59
2022-09-27T20:01:08.007Z,99032.00
2022-09-27T20:03:37.173Z,99031.19
2022-09-27T20:06:07.073Z,99028.50
2022-09-27T20:08:33.765Z,99029.03
2022-09-27T20:11:09.977Z,99025.81
2022-09-27T20:13:37.756Z,99033.59
2022-09-27T20:16:10.822Z,99042.97
2022-09-27T20:18:46.076Z,99032.78
2022-09-27T20:21:13.112Z,99035.22
2022-09-27T20:23:40.093Z,99022.09
2022-09-27T20:26:13.053Z,99019.91
2022-09-27T20:28:47.953Z,99027.72
2022-09-27T20:31:17.828Z,99011.09
2022-09-27T20:33:49.583Z,99015.88
2022-09-27T20:36:20.571Z,99011.88
2022-09-27T20:39:02.870Z,99004.31
2022-09-27T20:41:32.662Z,98983.66
2022-09-27T20:44:03.315Z,98989.47
2022-09-27T20:46:30.769Z,98988.38
2022-09-27T20:49:05.881Z,99001.09
2022-09-27T20:51:35.605Z,98990.09
2022-09-27T20:54:04.025Z,99002.47
2022-09-27T20:56:34.893Z,98990.41
2022-09-27T20:59:04.726Z,98982.34
2022-09-27T21:01:32.574Z,98986.44
2022-09-27T21:04:04.946Z,98975.97
2022-09-27T21:06:32.662Z,98982.63
2022-09-27T21:09:00.424Z,98980.53
2022-09-27T21:11:27.420Z,98978.41
2022-09-27T21:13:54.571Z,98979.19
2022-09-27T21:16:27.475Z,98968.75
2022-09-27T21:18:56.346Z,98957.69
2022-09-27T21:21:24.537Z,98955.00
2022-09-27T21:23:59.570Z,98945.34
2022-09-27T21:26:28.724Z,98949.91
2022-09-27T21:28:56.894Z,98941.63
2022-09-27T21:31:29.830Z,98936.13
2022-09-27T21:33:59.146Z,98927.88
2022-09-27T21:36:28.273Z,98928.72
2022-09-27T21:38:55.958Z,98915.88
2022-09-27T21:41:22.979Z,98915.31
2022-09-27T21:43:49.982Z,98916.91
2022-09-27T21:46:20.630Z,98902.44
2022-09-27T21:48:49.239Z,98892.00
2022-09-27T21:51:21.270Z,98897.59
2022-09-27T21:53:53.610Z,98894.31
2022-09-27T21:56:21.938Z,98889.75
2022-09-27T21:58:49.261Z,98892.16
2022-09-27T22:01:18.858Z,98894.88
2022-09-27T22:03:46.522Z,98891.94
2022-09-27T22:06:17.102Z,98893.00
2022-09-27T22:08:44.740Z,98891.59
2022-09-27T22:11:14.971Z,98894.59
2022-09-27T22:13:41.687Z,98889.00
2022-09-27T22:16:14.265Z,98876.09
2022-09-27T22:18:45.149Z,98873.63
2022-09-27T22:21:17.089Z,98867.97
2022-09-27T22:23:45.413Z,98869.06
2022-09-27T22:26:18.152Z,98872.84
2022-09-27T22:28:46.258Z,98861.00
2022-09-27T22:31:15.767Z,98860.00
2022-09-27T22:33:42.975Z,98860.00
2022-09-27T22:36:09.804Z,98856.53
2022-09-27T22:38:36.491Z,98852.75
2022-09-27T22:41:03.309Z,98852.34
2022-09-27T22:43:30.470Z,98847.06
2022-09-27T22:45:57.664Z,98840.56
2022-09-27T22:48:24.291Z,98825.19
2022-09-27T22:50:51.031Z,98828.56
2022-09-27T22:53:17.669Z,98827.84
2022-09-27T22:55:44.236Z,98816.34
2022-09-27T22:58:10.847Z,98814.72
2022-09-27T23:00:38.656Z,98818.56
2022-09-27T23:03:05.303Z,98809.38
2022-09-27T23:05:31.884Z,98805.06
2022-09-27T23:07:58.474Z,98803.19
2022-09-27T23:10:25.223Z,98797.00
2022-09-27T23:12:58.202Z,98779.66
2022-09-27T23:15:24.864Z,98778.03
2022-09-27T23:17:51.658Z,98786.44
2022-09-27T23:20:18.649Z,98779.06
2022-09-27T23:22:45.758Z,98771.66
2022-09-27T23:25:13.198Z,98766.78
2022-09-27T23:27:42.477Z,98762.56
2022-09-27T23:30:09.885Z,98754.78
2022-09-27T23:32:36.670Z,98742.34
2022-09-27T23:35:04.138Z,98741.81
2022-09-27T23:37:30.849Z,98734.63
2022-09-27T23:39:57.566Z,98731.88
2022-09-27T23:42:24.229Z,98727.94
2022-09-27T23:44:52.577Z,98723.66
2022-09-27T23:47:19.281Z,98722.06
2022-09-27T23:49:45.962Z,98712.50
2022-09-27T23:52:12.688Z,98705.56
2022-09-27T23:54:39.259Z,98708.00
2022-09-27T23:57:06.109Z,98702.69
2022-09-27T23:59:32.749Z,98699.22
